sensor_id;sensor_type;location;lat;lon;timestamp;pressure;altitude;pressure_sealevel;temperature;humidity
65157;BME280;52745;49.794;18.258;2022-12-29T00:01:37;-15992.84;;;2.07;76.96
65157;BME280;52745;49.794;18.258;2022-12-29T00:04:05;-15992.19;;;2.05;76.94
65157;BME280;52745;49.794;18.258;2022-12-29T00:06:32;-15993.28;;;2.09;76.93
65157;BME280;52745;49.794;18.258;2022-12-29T00:08:59;-15993.00;;;2.08;76.99
65157;BME280;52745;49.794;18.258;2022-12-29T00:11:27;-15993.13;;;2.09;77.10
65157;BME280;52745;49.794;18.258;2022-12-29T00:13:54;-15994.63;;;2.14;76.74
65157;BME280;52745;49.794;18.258;2022-12-29T00:16:43;-15995.47;;;2.17;76.76
65157;BME280;52745;49.794;18.258;2022-12-29T00:19:11;-15995.88;;;2.19;76.68
65157;BME280;52745;49.794;18.258;2022-12-29T00:21:57;-15997.78;;;2.26;76.36
65157;BME280;52745;49.794;18.258;2022-12-29T00:24:44;-15999.56;;;2.33;76.22
65157;BME280;52745;49.794;18.258;2022-12-29T00:27:27;-16001.06;;;2.38;75.40
65157;BME280;52745;49.794;18.258;2022-12-29T00:30:20;-16002.84;;;2.45;75.20
65157;BME280;52745;49.794;18.258;2022-12-29T00:33:16;-16004.78;;;2.52;74.96
65157;BME280;52745;49.794;18.258;2022-12-29T00:36:32;-16006.16;;;2.57;74.83
65157;BME280;52745;49.794;18.258;2022-12-29T00:39:04;-16008.59;;;2.66;74.17
65157;BME280;52745;49.794;18.258;2022-12-29T00:41:52;-16011.06;;;2.76;74.33
65157;BME280;52745;49.794;18.258;2022-12-29T00:44:37;-16012.44;;;2.81;73.69
65157;BME280;52745;49.794;18.258;2022-12-29T00:47:04;-16014.09;;;2.87;73.71
65157;BME280;52745;49.794;18.258;2022-12-29T00:49:32;-16013.25;;;2.84;73.78
65157;BME280;52745;49.794;18.258;2022-12-29T00:54:31;-16015.44;;;2.92;73.70
65157;BME280;52745;49.794;18.258;2022-12-29T00:56:58;-16017.63;;;3.00;73.26
65157;BME280;52745;49.794;18.258;2022-12-29T00:59:25;-16020.94;;;3.13;73.08
65157;BME280;52745;49.794;18.258;2022-12-29T01:01:53;-16020.50;;;3.11;72.80
65157;BME280;52745;49.794;18.258;2022-12-29T01:04:21;-16022.84;;;3.20;72.42
65157;BME280;52745;49.794;18.258;2022-12-29T01:06:49;-16022.97;;;3.20;72.23
65157;BME280;52745;49.794;18.258;2022-12-29T01:09:17;-16023.94;;;3.24;72.97
65157;BME280;52745;49.794;18.258;2022-12-29T01:12:03;-16024.22;;;3.25;72.71
65157;BME280;52745;49.794;18.258;2022-12-29T01:14:30;-16028.72;;;3.42;72.02
65157;BME280;52745;49.794;18.258;2022-12-29T01:16:58;-16028.31;;;3.40;72.24
65157;BME280;52745;49.794;18.258;2022-12-29T01:19:25;-16027.34;;;3.37;71.92
65157;BME280;52745;49.794;18.258;2022-12-29T01:21:52;-16026.94;;;3.35;72.23
65157;BME280;52745;49.794;18.258;2022-12-29T01:24:20;-16027.22;;;3.36;71.69
65157;BME280;52745;49.794;18.258;2022-12-29T01:26:48;-16028.19;;;3.40;71.61
65157;BME280;52745;49.794;18.258;2022-12-29T01:29:17;-16029.69;;;3.45;71.21
65157;BME280;52745;49.794;18.258;2022-12-29T01:31:46;-16031.31;;;3.51;71.41
65157;BME280;52745;49.794;18.258;2022-12-29T01:34:12;-16029.69;;;3.45;71.16
65157;BME280;52745;49.794;18.258;2022-12-29T01:36:39;-16026.53;;;3.34;71.68
65157;BME280;52745;49.794;18.258;2022-12-29T01:39:06;-16024.47;;;3.26;71.71
65157;BME280;52745;49.794;18.258;2022-12-29T01:41:33;-16026.94;;;3.35;71.91
65157;BME280;52745;49.794;18.258;2022-12-29T01:44:01;-16025.59;;;3.30;71.96
65157;BME280;52745;49.794;18.258;2022-12-29T01:46:39;-16024.34;;;3.25;71.71
65157;BME280;52745;49.794;18.258;2022-12-29T01:49:18;-16023.94;;;3.24;71.90
65157;BME280;52745;49.794;18.258;2022-12-29T01:57:27;-16023.66;;;3.23;71.90
65157;BME280;52745;49.794;18.258;2022-12-29T02:00:00;-16024.75;;;3.27;71.78
65157;BME280;52745;49.794;18.258;2022-12-29T02:02:28;-16024.47;;;3.26;72.00
65157;BME280;52745;49.794;18.258;2022-12-29T02:04:57;-16024.75;;;3.27;72.20
65157;BME280;52745;49.794;18.258;2022-12-29T02:07:26;-16025.44;;;3.29;71.67
65157;BME280;52745;49.794;18.258;2022-12-29T02:09:54;-16024.88;;;3.27;72.05
65157;BME280;52745;49.794;18.258;2022-12-29T02:12:23;-16025.31;;;3.29;71.99
65157;BME280;52745;49.794;18.258;2022-12-29T02:14:54;-16026.53;;;3.34;71.98
65157;BME280;52745;49.794;18.258;2022-12-29T02:20:37;-16027.63;;;3.38;71.76
65157;BME280;52745;49.794;18.258;2022-12-29T02:26:10;-16026.41;;;3.33;71.91
65157;BME280;52745;49.794;18.258;2022-12-29T02:37:03;-16027.75;;;3.38;72.24
65157;BME280;52745;49.794;18.258;2022-12-29T02:48:45;-16029.13;;;3.43;72.14
65157;BME280;52745;49.794;18.258;2022-12-29T02:51:21;-16029.53;;;3.45;72.21
65157;BME280;52745;49.794;18.258;2022-12-29T02:53:51;-16030.63;;;3.49;72.02
65157;BME280;52745;49.794;18.258;2022-12-29T02:56:38;-16030.78;;;3.49;71.93
65157;BME280;52745;49.794;18.258;2022-12-29T02:59:05;-16030.50;;;3.48;72.04
65157;BME280;52745;49.794;18.258;2022-12-29T03:12:45;-16034.06;;;3.62;71.98
65157;BME280;52745;49.794;18.258;2022-12-29T03:15:57;-16037.06;;;3.73;71.37
65157;BME280;52745;49.794;18.258;2022-12-29T03:21:18;-16038.31;;;3.78;71.15
65157;BME280;52745;49.794;18.258;2022-12-29T03:23:49;-16039.66;;;3.83;71.29
65157;BME280;52745;49.794;18.258;2022-12-29T03:26:18;-16041.72;;;3.90;70.44
65157;BME280;52745;49.794;18.258;2022-12-29T03:28:53;-16041.31;;;3.89;70.24
65157;BME280;52745;49.794;18.258;2022-12-29T03:31:25;-16042.28;;;3.92;70.14
65157;BME280;52745;49.794;18.258;2022-12-29T03:33:55;-16040.63;;;3.86;70.56
65157;BME280;52745;49.794;18.258;2022-12-29T03:36:52;-16037.63;;;3.75;71.75
65157;BME280;52745;49.794;18.258;2022-12-29T03:39:22;-16032.16;;;3.55;72.91
65157;BME280;52745;49.794;18.258;2022-12-29T03:41:54;-16028.03;;;3.39;73.56
65157;BME280;52745;49.794;18.258;2022-12-29T03:44:36;-16026.13;;;3.32;73.70
65157;BME280;52745;49.794;18.258;2022-12-29T03:47:04;-16026.25;;;3.33;73.78
65157;BME280;52745;49.794;18.258;2022-12-29T03:49:32;-16029.53;;;3.45;73.45
65157;BME280;52745;49.794;18.258;2022-12-29T03:51:59;-16031.19;;;3.51;73.17
65157;BME280;52745;49.794;18.258;2022-12-29T03:54:27;-16032.41;;;3.56;72.67
65157;BME280;52745;49.794;18.258;2022-12-29T03:56:54;-16033.25;;;3.59;72.89
65157;BME280;52745;49.794;18.258;2022-12-29T03:59:31;-16032.97;;;3.58;72.95
65157;BME280;52745;49.794;18.258;2022-12-29T04:01:58;-16032.00;;;3.54;73.19
65157;BME280;52745;49.794;18.258;2022-12-29T04:04:25;-16034.19;;;3.62;72.67
65157;BME280;52745;49.794;18.258;2022-12-29T04:06:51;-16034.63;;;3.64;72.98
65157;BME280;52745;49.794;18.258;2022-12-29T04:09:19;-16035.72;;;3.68;72.87
65157;BME280;52745;49.794;18.258;2022-12-29T04:11:48;-16034.63;;;3.64;72.87
65157;BME280;52745;49.794;18.258;2022-12-29T04:14:15;-16036.38;;;3.70;72.88
65157;BME280;52745;49.794;18.258;2022-12-29T04:16:42;-16035.16;;;3.66;72.61
65157;BME280;52745;49.794;18.258;2022-12-29T04:19:09;-16036.81;;;3.72;72.71
65157;BME280;52745;49.794;18.258;2022-12-29T04:21:37;-16039.53;;;3.82;72.33
65157;BME280;52745;49.794;18.258;2022-12-29T04:24:05;-16040.91;;;3.87;72.24
65157;BME280;52745;49.794;18.258;2022-12-29T04:26:36;-16039.53;;;3.82;72.46
65157;BME280;52745;49.794;18.258;2022-12-29T04:29:32;-16041.44;;;3.89;72.17
65157;BME280;52745;49.794;18.258;2022-12-29T04:32:12;-16037.34;;;3.74;72.23
65157;BME280;52745;49.794;18.258;2022-12-29T04:34:44;-16037.88;;;3.76;72.48
65157;BME280;52745;49.794;18.258;2022-12-29T04:37:12;-16037.34;;;3.74;72.73
65157;BME280;52745;49.794;18.258;2022-12-29T04:39:40;-16037.06;;;3.73;72.70
65157;BME280;52745;49.794;18.258;2022-12-29T04:42:08;-16033.94;;;3.61;72.94
65157;BME280;52745;49.794;18.258;2022-12-29T04:44:35;-16035.28;;;3.66;73.02
65157;BME280;52745;49.794;18.258;2022-12-29T04:47:09;-16035.72;;;3.68;73.06
65157;BME280;52745;49.794;18.258;2022-12-29T04:49:57;-16034.34;;;3.63;73.23
65157;BME280;52745;49.794;18.258;2022-12-29T04:52:44;-16031.59;;;3.52;73.97
65157;BME280;52745;49.794;18.258;2022-12-29T04:55:13;-16029.28;;;3.44;74.07
65157;BME280;52745;49.794;18.258;2022-12-29T04:57:41;-16030.09;;;3.47;74.12
65157;BME280;52745;49.794;18.258;2022-12-29T05:00:09;-16030.09;;;3.47;74.19
65157;BME280;52745;49.794;18.258;2022-12-29T05:02:37;-16029.69;;;3.45;74.20
65157;BME280;52745;49.794;18.258;2022-12-29T05:05:04;-16030.22;;;3.47;74.49
65157;BME280;52745;49.794;18.258;2022-12-29T05:07:33;-16024.75;;;3.27;75.14
65157;BME280;52745;49.794;18.258;2022-12-29T05:10:00;-16026.13;;;3.32;75.62
65157;BME280;52745;49.794;18.258;2022-12-29T05:12:31;-16023.38;;;3.22;75.74
65157;BME280;52745;49.794;18.258;2022-12-29T05:15:01;-16018.19;;;3.02;76.33
65157;BME280;52745;49.794;18.258;2022-12-29T05:17:29;-16015.59;;;2.93;76.86
65157;BME280;52745;49.794;18.258;2022-12-29T05:19:56;-16015.44;;;2.92;77.51
65157;BME280;52745;49.794;18.258;2022-12-29T05:22:23;-16015.59;;;2.93;77.35
65157;BME280;52745;49.794;18.258;2022-12-29T05:24:50;-16015.59;;;2.93;77.56
65157;BME280;52745;49.794;18.258;2022-12-29T05:27:17;-16013.53;;;2.85;77.97
65157;BME280;52745;49.794;18.258;2022-12-29T05:30:19;-16015.84;;;2.94;77.26
65157;BME280;52745;49.794;18.258;2022-12-29T05:32:46;-16013.25;;;2.84;77.92
65157;BME280;52745;49.794;18.258;2022-12-29T05:35:13;-16014.63;;;2.89;77.78
65157;BME280;52745;49.794;18.258;2022-12-29T05:37:39;-16015.31;;;2.92;77.58
65157;BME280;52745;49.794;18.258;2022-12-29T05:40:07;-16014.09;;;2.87;77.54
65157;BME280;52745;49.794;18.258;2022-12-29T05:42:34;-16012.31;;;2.80;77.81
65157;BME280;52745;49.794;18.258;2022-12-29T05:45:25;-16012.84;;;2.82;78.11
65157;BME280;52745;49.794;18.258;2022-12-29T05:48:08;-16012.72;;;2.82;77.85
65157;BME280;52745;49.794;18.258;2022-12-29T05:51:07;-16011.06;;;2.76;78.11
65157;BME280;52745;49.794;18.258;2022-12-29T05:53:52;-16012.44;;;2.81;78.05
65157;BME280;52745;49.794;18.258;2022-12-29T05:56:18;-16012.44;;;2.81;78.14
65157;BME280;52745;49.794;18.258;2022-12-29T05:58:52;-16012.03;;;2.79;78.27
65157;BME280;52745;49.794;18.258;2022-12-29T06:01:19;-16012.72;;;2.82;78.50
65157;BME280;52745;49.794;18.258;2022-12-29T06:03:46;-16012.97;;;2.83;78.57
65157;BME280;52745;49.794;18.258;2022-12-29T06:06:13;-16012.97;;;2.83;78.28
65157;BME280;52745;49.794;18.258;2022-12-29T06:08:39;-16013.53;;;2.85;77.96
65157;BME280;52745;49.794;18.258;2022-12-29T06:11:07;-16016.00;;;2.94;78.03
65157;BME280;52745;49.794;18.258;2022-12-29T06:13:33;-16014.50;;;2.88;77.83
65157;BME280;52745;49.794;18.258;2022-12-29T06:16:00;-16014.09;;;2.87;77.80
65157;BME280;52745;49.794;18.258;2022-12-29T06:18:27;-16014.22;;;2.87;78.22
65157;BME280;52745;49.794;18.258;2022-12-29T06:21:00;-16014.22;;;2.87;78.22
65157;BME280;52745;49.794;18.258;2022-12-29T06:23:27;-16013.53;;;2.85;78.22
65157;BME280;52745;49.794;18.258;2022-12-29T06:25:54;-16011.34;;;2.77;78.24
65157;BME280;52745;49.794;18.258;2022-12-29T06:28:21;-16011.88;;;2.79;78.63
65157;BME280;52745;49.794;18.258;2022-12-29T06:30:49;-16010.53;;;2.74;78.82
65157;BME280;52745;49.794;18.258;2022-12-29T06:33:17;-16011.88;;;2.79;79.03
65157;BME280;52745;49.794;18.258;2022-12-29T06:35:44;-16012.16;;;2.80;78.43
65157;BME280;52745;49.794;18.258;2022-12-29T06:38:12;-16011.34;;;2.77;78.98
65157;BME280;52745;49.794;18.258;2022-12-29T06:40:39;-16011.88;;;2.79;78.34
65157;BME280;52745;49.794;18.258;2022-12-29T06:43:22;-16013.13;;;2.83;78.66
65157;BME280;52745;49.794;18.258;2022-12-29T06:46:18;-16013.53;;;2.85;78.74
65157;BME280;52745;49.794;18.258;2022-12-29T06:48:45;-16013.81;;;2.86;78.78
65157;BME280;52745;49.794;18.258;2022-12-29T06:51:12;-16015.31;;;2.92;78.47
65157;BME280;52745;49.794;18.258;2022-12-29T06:53:39;-16016.28;;;2.95;78.73
65157;BME280;52745;49.794;18.258;2022-12-29T06:56:06;-16017.22;;;2.99;78.36
65157;BME280;52745;49.794;18.258;2022-12-29T06:58:33;-16017.78;;;3.01;78.33
65157;BME280;52745;49.794;18.258;2022-12-29T07:01:00;-16019.16;;;3.06;77.60
65157;BME280;52745;49.794;18.258;2022-12-29T07:03:27;-16018.59;;;3.04;78.35
65157;BME280;52745;49.794;18.258;2022-12-29T07:05:54;-16019.00;;;3.05;77.96
65157;BME280;52745;49.794;18.258;2022-12-29T07:08:20;-16019.84;;;3.08;77.99
65157;BME280;52745;49.794;18.258;2022-12-29T07:10:47;-16019.41;;;3.07;78.51
65157;BME280;52745;49.794;18.258;2022-12-29T07:13:14;-16017.38;;;2.99;78.19
65157;BME280;52745;49.794;18.258;2022-12-29T07:15:41;-16017.09;;;2.98;78.56
65157;BME280;52745;49.794;18.258;2022-12-29T07:18:08;-16017.38;;;2.99;78.69
65157;BME280;52745;49.794;18.258;2022-12-29T07:20:34;-16014.75;;;2.89;79.19
65157;BME280;52745;49.794;18.258;2022-12-29T07:23:02;-16014.91;;;2.90;79.38
65157;BME280;52745;49.794;18.258;2022-12-29T07:25:29;-16014.09;;;2.87;79.77
65157;BME280;52745;49.794;18.258;2022-12-29T07:27:55;-16024.47;;;3.26;86.71
65157;BME280;52745;49.794;18.258;2022-12-29T07:30:22;-16028.31;;;3.40;82.16
65157;BME280;52745;49.794;18.258;2022-12-29T07:32:49;-16030.50;;;3.48;80.14
65157;BME280;52745;49.794;18.258;2022-12-29T07:35:16;-16028.03;;;3.39;81.39
65157;BME280;52745;49.794;18.258;2022-12-29T07:37:43;-16029.13;;;3.43;80.35
65157;BME280;52745;49.794;18.258;2022-12-29T07:40:10;-16031.06;;;3.50;82.42
65157;BME280;52745;49.794;18.258;2022-12-29T07:42:37;-16031.47;;;3.52;79.40
65157;BME280;52745;49.794;18.258;2022-12-29T07:45:06;-16032.16;;;3.55;81.65
65157;BME280;52745;49.794;18.258;2022-12-29T07:47:56;-16035.28;;;3.66;81.29
65157;BME280;52745;49.794;18.258;2022-12-29T07:50:23;-16030.22;;;3.47;79.93
65157;BME280;52745;49.794;18.258;2022-12-29T07:52:50;-16028.88;;;3.42;79.18
65157;BME280;52745;49.794;18.258;2022-12-29T07:55:17;-16030.09;;;3.47;80.64
65157;BME280;52745;49.794;18.258;2022-12-29T07:57:43;-16021.75;;;3.16;79.50
65157;BME280;52745;49.794;18.258;2022-12-29T08:00:11;-16020.09;;;3.09;79.36
65157;BME280;52745;49.794;18.258;2022-12-29T08:02:40;-16018.47;;;3.03;79.67
65157;BME280;52745;49.794;18.258;2022-12-29T08:05:07;-16018.19;;;3.02;79.93
65157;BME280;52745;49.794;18.258;2022-12-29T08:07:34;-16016.53;;;2.96;80.33
65157;BME280;52745;49.794;18.258;2022-12-29T08:10:01;-16016.81;;;2.97;80.27
65157;BME280;52745;49.794;18.258;2022-12-29T08:12:28;-16018.47;;;3.03;80.04
65157;BME280;52745;49.794;18.258;2022-12-29T08:14:55;-16018.47;;;3.03;80.31
65157;BME280;52745;49.794;18.258;2022-12-29T08:17:21;-16019.84;;;3.08;79.99
65157;BME280;52745;49.794;18.258;2022-12-29T08:19:48;-16021.47;;;3.15;80.26
65157;BME280;52745;49.794;18.258;2022-12-29T08:22:15;-16021.34;;;3.14;80.04
65157;BME280;52745;49.794;18.258;2022-12-29T08:24:42;-16021.47;;;3.15;80.15
65157;BME280;52745;49.794;18.258;2022-12-29T08:27:09;-16023.81;;;3.23;79.92
65157;BME280;52745;49.794;18.258;2022-12-29T08:29:36;-16025.59;;;3.30;79.74
65157;BME280;52745;49.794;18.258;2022-12-29T08:32:02;-16025.59;;;3.30;79.85
65157;BME280;52745;49.794;18.258;2022-12-29T08:34:31;-16026.00;;;3.31;80.17
65157;BME280;52745;49.794;18.258;2022-12-29T08:36:57;-16028.03;;;3.39;79.61
65157;BME280;52745;49.794;18.258;2022-12-29T08:39:24;-16028.31;;;3.40;79.89
65157;BME280;52745;49.794;18.258;2022-12-29T08:41:51;-16025.59;;;3.30;80.60
65157;BME280;52745;49.794;18.258;2022-12-29T08:44:18;-16024.06;;;3.24;80.53
65157;BME280;52745;49.794;18.258;2022-12-29T08:46:45;-16027.91;;;3.39;80.38
65157;BME280;52745;49.794;18.258;2022-12-29T08:49:12;-16028.31;;;3.40;80.10
65157;BME280;52745;49.794;18.258;2022-12-29T08:51:39;-16027.75;;;3.38;80.51
65157;BME280;52745;49.794;18.258;2022-12-29T08:54:06;-16026.41;;;3.33;80.68
65157;BME280;52745;49.794;18.258;2022-12-29T08:56:32;-16026.66;;;3.34;80.89
65157;BME280;52745;49.794;18.258;2022-12-29T08:59:00;-16027.34;;;3.37;81.05
65157;BME280;52745;49.794;18.258;2022-12-29T09:01:29;-16027.09;;;3.36;81.22
65157;BME280;52745;49.794;18.258;2022-12-29T09:03:57;-16026.13;;;3.32;81.50
65157;BME280;52745;49.794;18.258;2022-12-29T09:06:24;-16028.44;;;3.41;81.47
65157;BME280;52745;49.794;18.258;2022-12-29T09:08:53;-16027.09;;;3.36;81.61
65157;BME280;52745;49.794;18.258;2022-12-29T09:11:23;-16027.34;;;3.37;81.29
65157;BME280;52745;49.794;18.258;2022-12-29T09:13:51;-16029.81;;;3.46;81.50
65157;BME280;52745;49.794;18.258;2022-12-29T09:16:20;-16031.88;;;3.53;81.10
65157;BME280;52745;49.794;18.258;2022-12-29T09:18:48;-16033.09;;;3.58;81.12
65157;BME280;52745;49.794;18.258;2022-12-29T09:21:15;-16032.97;;;3.58;80.85
65157;BME280;52745;49.794;18.258;2022-12-29T09:23:42;-16035.97;;;3.69;80.82
65157;BME280;52745;49.794;18.258;2022-12-29T09:26:09;-16039.00;;;3.80;80.52
65157;BME280;52745;49.794;18.258;2022-12-29T09:28:36;-16041.19;;;3.88;80.28
65157;BME280;52745;49.794;18.258;2022-12-29T09:31:03;-16041.44;;;3.89;80.29
65157;BME280;52745;49.794;18.258;2022-12-29T09:33:30;-16045.84;;;4.06;80.00
65157;BME280;52745;49.794;18.258;2022-12-29T09:35:59;-16054.44;;;4.38;78.20
65157;BME280;52745;49.794;18.258;2022-12-29T09:38:27;-16080.84;;;5.37;75.59
65157;BME280;52745;49.794;18.258;2022-12-29T09:41:19;-16137.69;;;7.50;66.95
65157;BME280;52745;49.794;18.258;2022-12-29T09:46:24;-16210.03;;;10.22;56.17
65157;BME280;52745;49.794;18.258;2022-12-29T09:49:21;-16240.84;;;11.37;53.25
65157;BME280;52745;49.794;18.258;2022-12-29T09:51:53;-16257.47;;;12.00;51.04
65157;BME280;52745;49.794;18.258;2022-12-29T09:54:36;-16276.66;;;12.72;48.61
65157;BME280;52745;49.794;18.258;2022-12-29T09:57:20;-16300.22;;;13.61;46.18
65157;BME280;52745;49.794;18.258;2022-12-29T09:59:50;-16269.84;;;12.47;48.06
65157;BME280;52745;49.794;18.258;2022-12-29T10:02:41;-16270.13;;;12.48;48.58
65157;BME280;52745;49.794;18.258;2022-12-29T10:05:35;-16285.25;;;13.04;47.08
65157;BME280;52745;49.794;18.258;2022-12-29T10:08:43;-16281.84;;;12.92;47.04
65157;BME280;52745;49.794;18.258;2022-12-29T10:14:07;-16255.00;;;11.91;49.19
65157;BME280;52745;49.794;18.258;2022-12-29T10:19:36;-16244.91;;;11.53;50.38
65157;BME280;52745;49.794;18.258;2022-12-29T10:25:11;-16275.97;;;12.70;47.53
65157;BME280;52745;49.794;18.258;2022-12-29T10:27:39;-16301.84;;;13.67;44.76
65157;BME280;52745;49.794;18.258;2022-12-29T10:30:11;-16312.19;;;14.06;43.46
65157;BME280;52745;49.794;18.258;2022-12-29T10:35:23;-16322.38;;;14.44;43.37
65157;BME280;52745;49.794;18.258;2022-12-29T10:43:34;-16313.28;;;14.10;44.05
65157;BME280;52745;49.794;18.258;2022-12-29T10:46:12;-16317.22;;;14.25;43.72
65157;BME280;52745;49.794;18.258;2022-12-29T10:48:40;-16336.94;;;14.99;42.26
65157;BME280;52745;49.794;18.258;2022-12-29T10:51:24;-16337.50;;;15.01;42.04
65157;BME280;52745;49.794;18.258;2022-12-29T10:53:57;-16326.47;;;14.60;43.10
65157;BME280;52745;49.794;18.258;2022-12-29T10:56:29;-16329.59;;;14.72;43.33
65157;BME280;52745;49.794;18.258;2022-12-29T10:59:04;-16339.13;;;15.07;42.26
65157;BME280;52745;49.794;18.258;2022-12-29T11:01:44;-16342.38;;;15.20;41.96
65157;BME280;52745;49.794;18.258;2022-12-29T11:07:30;-16313.97;;;14.13;44.56
65157;BME280;52745;49.794;18.258;2022-12-29T11:10:37;-16326.47;;;14.60;43.42
65157;BME280;52745;49.794;18.258;2022-12-29T11:13:17;-16314.09;;;14.13;44.76
65157;BME280;52745;49.794;18.258;2022-12-29T11:15:48;-16286.06;;;13.08;47.23
65157;BME280;52745;49.794;18.258;2022-12-29T11:18:37;-16264.00;;;12.25;49.47
65157;BME280;52745;49.794;18.258;2022-12-29T11:21:07;-16259.63;;;12.08;50.60
65157;BME280;52745;49.794;18.258;2022-12-29T11:23:56;-16259.22;;;12.07;50.67
65157;BME280;52745;49.794;18.258;2022-12-29T11:26:24;-16266.44;;;12.34;50.09
65157;BME280;52745;49.794;18.258;2022-12-29T11:31:45;-16260.03;;;12.10;51.25
65157;BME280;52745;49.794;18.258;2022-12-29T11:34:20;-16257.72;;;12.01;51.74
65157;BME280;52745;49.794;18.258;2022-12-29T11:36:48;-16270.25;;;12.48;50.68
65157;BME280;52745;49.794;18.258;2022-12-29T11:39:37;-16287.81;;;13.14;48.88
65157;BME280;52745;49.794;18.258;2022-12-29T11:42:13;-16291.50;;;13.28;47.92
65157;BME280;52745;49.794;18.258;2022-12-29T11:44:48;-16293.41;;;13.35;48.35
65157;BME280;52745;49.794;18.258;2022-12-29T11:47:31;-16294.50;;;13.39;47.69
65157;BME280;52745;49.794;18.258;2022-12-29T11:50:00;-16290.56;;;13.24;48.37
65157;BME280;52745;49.794;18.258;2022-12-29T11:52:32;-16290.13;;;13.23;48.37
65157;BME280;52745;49.794;18.258;2022-12-29T11:55:03;-16275.44;;;12.68;49.81
65157;BME280;52745;49.794;18.258;2022-12-29T11:57:33;-16263.72;;;12.24;51.09
65157;BME280;52745;49.794;18.258;2022-12-29T12:00:18;-16266.72;;;12.35;50.54
65157;BME280;52745;49.794;18.258;2022-12-29T12:03:07;-16259.91;;;12.09;51.79
65157;BME280;52745;49.794;18.258;2022-12-29T12:05:49;-16256.09;;;11.95;52.25
65157;BME280;52745;49.794;18.258;2022-12-29T12:10:57;-16242.88;;;11.45;53.92
65157;BME280;52745;49.794;18.258;2022-12-29T12:13:34;-16233.06;;;11.08;55.44
65157;BME280;52745;49.794;18.258;2022-12-29T12:16:15;-16224.34;;;10.75;56.61
65157;BME280;52745;49.794;18.258;2022-12-29T12:22:00;-16220.38;;;10.61;57.35
65157;BME280;52745;49.794;18.258;2022-12-29T12:24:39;-16210.69;;;10.24;59.31
65157;BME280;52745;49.794;18.258;2022-12-29T12:32:34;-16211.66;;;10.28;59.10
65157;BME280;52745;49.794;18.258;2022-12-29T12:43:22;-16211.53;;;10.27;59.32
65157;BME280;52745;49.794;18.258;2022-12-29T12:55:02;-16210.28;;;10.23;59.43
65157;BME280;52745;49.794;18.258;2022-12-29T13:00:18;-16205.78;;;10.06;59.13
65157;BME280;52745;49.794;18.258;2022-12-29T13:05:45;-16190.38;;;9.48;61.07
65157;BME280;52745;49.794;18.258;2022-12-29T13:16:56;-16159.25;;;8.31;66.31
65157;BME280;52745;49.794;18.258;2022-12-29T13:22:09;-16152.72;;;8.06;67.65
65157;BME280;52745;49.794;18.258;2022-12-29T13:37:34;-16146.00;;;7.81;69.81
65157;BME280;52745;49.794;18.258;2022-12-29T13:40:16;-16146.44;;;7.83;69.50
65157;BME280;52745;49.794;18.258;2022-12-29T13:42:44;-16145.34;;;7.79;69.85
65157;BME280;52745;49.794;18.258;2022-12-29T13:45:16;-16142.59;;;7.69;70.33
65157;BME280;52745;49.794;18.258;2022-12-29T13:48:17;-16140.97;;;7.62;70.58
65157;BME280;52745;49.794;18.258;2022-12-29T13:50:56;-16139.31;;;7.56;70.91
65157;BME280;52745;49.794;18.258;2022-12-29T13:53:30;-16134.97;;;7.40;71.49
65157;BME280;52745;49.794;18.258;2022-12-29T13:59:03;-16130.31;;;7.22;72.69
65157;BME280;52745;49.794;18.258;2022-12-29T14:01:54;-16125.81;;;7.05;73.17
65157;BME280;52745;49.794;18.258;2022-12-29T14:04:29;-16128.81;;;7.17;72.91
65157;BME280;52745;49.794;18.258;2022-12-29T14:07:03;-16128.94;;;7.17;73.21
65157;BME280;52745;49.794;18.258;2022-12-29T14:09:50;-16124.03;;;6.99;73.30
65157;BME280;52745;49.794;18.258;2022-12-29T14:12:31;-16128.41;;;7.15;72.80
65157;BME280;52745;49.794;18.258;2022-12-29T14:15:14;-16126.09;;;7.07;72.56
65157;BME280;52745;49.794;18.258;2022-12-29T14:18:21;-16126.91;;;7.10;72.69
65157;BME280;52745;49.794;18.258;2022-12-29T14:23:27;-16127.84;;;7.13;72.92
65157;BME280;52745;49.794;18.258;2022-12-29T14:36:52;-16108.88;;;6.42;77.78
65157;BME280;52745;49.794;18.258;2022-12-29T14:39:33;-16103.00;;;6.20;78.86
65157;BME280;52745;49.794;18.258;2022-12-29T14:42:02;-16099.44;;;6.07;79.36
65157;BME280;52745;49.794;18.258;2022-12-29T14:44:31;-16093.97;;;5.86;80.14
65157;BME280;52745;49.794;18.258;2022-12-29T14:47:03;-16092.88;;;5.82;80.58
65157;BME280;52745;49.794;18.258;2022-12-29T14:49:40;-16091.91;;;5.78;80.15
65157;BME280;52745;49.794;18.258;2022-12-29T14:54:51;-16092.59;;;5.81;80.06
65157;BME280;52745;49.794;18.258;2022-12-29T14:59:57;-16084.94;;;5.52;81.13
65157;BME280;52745;49.794;18.258;2022-12-29T15:02:33;-16085.50;;;5.54;80.90
65157;BME280;52745;49.794;18.258;2022-12-29T15:05:02;-16084.81;;;5.52;80.81
65157;BME280;52745;49.794;18.258;2022-12-29T15:07:30;-16083.44;;;5.47;80.71
65157;BME280;52745;49.794;18.258;2022-12-29T15:10:05;-16083.97;;;5.49;80.27
65157;BME280;52745;49.794;18.258;2022-12-29T15:12:40;-16083.31;;;5.46;80.46
65157;BME280;52745;49.794;18.258;2022-12-29T15:17:43;-16082.06;;;5.42;80.34
65157;BME280;52745;49.794;18.258;2022-12-29T15:20:27;-16080.56;;;5.36;80.53
65157;BME280;52745;49.794;18.258;2022-12-29T15:23:03;-16078.94;;;5.30;80.67
65157;BME280;52745;49.794;18.258;2022-12-29T15:25:36;-16079.75;;;5.33;80.79
65157;BME280;52745;49.794;18.258;2022-12-29T15:28:12;-16080.84;;;5.37;80.66
65157;BME280;52745;49.794;18.258;2022-12-29T15:31:01;-16080.84;;;5.37;80.52
65157;BME280;52745;49.794;18.258;2022-12-29T15:33:29;-16077.97;;;5.26;81.09
65157;BME280;52745;49.794;18.258;2022-12-29T15:36:03;-16077.28;;;5.24;81.60
65157;BME280;52745;49.794;18.258;2022-12-29T15:38:30;-16076.06;;;5.19;81.80
65157;BME280;52745;49.794;18.258;2022-12-29T15:41:05;-16073.72;;;5.10;82.15
65157;BME280;52745;49.794;18.258;2022-12-29T15:43:53;-16073.19;;;5.08;82.16
65157;BME280;52745;49.794;18.258;2022-12-29T15:46:24;-16073.31;;;5.09;82.25
65157;BME280;52745;49.794;18.258;2022-12-29T15:48:50;-16072.91;;;5.07;82.03
65157;BME280;52745;49.794;18.258;2022-12-29T15:51:28;-16072.91;;;5.07;82.27